sensor_id;sensor_type;location;lat;lon;timestamp;P1;durP1;ratioP1;P2;durP2;ratioP2
51082;SDS011;37131;42.694;23.350;2023-08-17T00:00:01;3.67;;;1.95;;
51082;SDS011;37131;42.694;23.350;2023-08-17T00:02:29;3.97;;;2.33;;
51082;SDS011;37131;42.694;23.350;2023-08-17T00:04:54;5.20;;;2.55;;
51082;SDS011;37131;42.694;23.350;2023-08-17T00:07:19;6.10;;;2.13;;
51082;SDS011;37131;42.694;23.350;2023-08-17T00:09:45;6.82;;;2.20;;
51082;SDS011;37131;42.694;23.350;2023-08-17T00:12:10;5.72;;;1.77;;
51082;SDS011;37131;42.694;23.350;2023-08-17T00:14:35;3.53;;;1.80;;
51082;SDS011;37131;42.694;23.350;2023-08-17T00:17:01;5.40;;;1.90;;
51082;SDS011;37131;42.694;23.350;2023-08-17T00:19:28;4.32;;;2.00;;
51082;SDS011;37131;42.694;23.350;2023-08-17T00:21:53;4.47;;;1.80;;
51082;SDS011;37131;42.694;23.350;2023-08-17T00:24:20;5.07;;;1.63;;
51082;SDS011;37131;42.694;23.350;2023-08-17T00:26:45;4.07;;;2.03;;
51082;SDS011;37131;42.694;23.350;2023-08-17T00:29:10;6.13;;;2.30;;
51082;SDS011;37131;42.694;23.350;2023-08-17T00:31:36;3.63;;;1.90;;
51082;SDS011;37131;42.694;23.350;2023-08-17T00:34:01;3.95;;;2.08;;
51082;SDS011;37131;42.694;23.350;2023-08-17T00:36:27;4.25;;;1.83;;
51082;SDS011;37131;42.694;23.350;2023-08-17T00:38:53;4.57;;;2.00;;
51082;SDS011;37131;42.694;23.350;2023-08-17T00:41:18;4.07;;;1.70;;
51082;SDS011;37131;42.694;23.350;2023-08-17T00:43:43;3.60;;;2.03;;
51082;SDS011;37131;42.694;23.350;2023-08-17T00:46:09;5.35;;;2.10;;
51082;SDS011;37131;42.694;23.350;2023-08-17T00:48:36;4.25;;;2.10;;
51082;SDS011;37131;42.694;23.350;2023-08-17T00:51:01;3.95;;;1.88;;
51082;SDS011;37131;42.694;23.350;2023-08-17T00:53:27;4.28;;;1.73;;
51082;SDS011;37131;42.694;23.350;2023-08-17T00:55:55;3.10;;;1.67;;
51082;SDS011;37131;42.694;23.350;2023-08-17T00:58:22;4.05;;;1.90;;
51082;SDS011;37131;42.694;23.350;2023-08-17T01:00:47;4.63;;;1.70;;
51082;SDS011;37131;42.694;23.350;2023-08-17T01:03:13;5.47;;;1.75;;
51082;SDS011;37131;42.694;23.350;2023-08-17T01:05:40;5.53;;;1.58;;
51082;SDS011;37131;42.694;23.350;2023-08-17T01:08:05;3.95;;;1.67;;
51082;SDS011;37131;42.694;23.350;2023-08-17T01:10:31;2.55;;;1.50;;
51082;SDS011;37131;42.694;23.350;2023-08-17T01:13:11;3.72;;;1.50;;
51082;SDS011;37131;42.694;23.350;2023-08-17T01:15:43;4.82;;;1.67;;
51082;SDS011;37131;42.694;23.350;2023-08-17T01:18:17;3.92;;;1.42;;
51082;SDS011;37131;42.694;23.350;2023-08-17T01:20:48;4.22;;;1.52;;
51082;SDS011;37131;42.694;23.350;2023-08-17T01:23:15;4.18;;;1.92;;
51082;SDS011;37131;42.694;23.350;2023-08-17T01:25:40;3.75;;;1.48;;
51082;SDS011;37131;42.694;23.350;2023-08-17T01:28:06;3.38;;;1.23;;
51082;SDS011;37131;42.694;23.350;2023-08-17T01:30:55;3.63;;;1.60;;
51082;SDS011;37131;42.694;23.350;2023-08-17T01:33:49;2.20;;;1.38;;
51082;SDS011;37131;42.694;23.350;2023-08-17T01:36:25;3.38;;;1.42;;
51082;SDS011;37131;42.694;23.350;2023-08-17T01:38:53;4.60;;;1.80;;
51082;SDS011;37131;42.694;23.350;2023-08-17T01:41:22;6.25;;;2.05;;
51082;SDS011;37131;42.694;23.350;2023-08-17T01:43:48;4.35;;;1.50;;
51082;SDS011;37131;42.694;23.350;2023-08-17T01:46:15;4.40;;;1.80;;
51082;SDS011;37131;42.694;23.350;2023-08-17T01:48:42;4.07;;;1.50;;
51082;SDS011;37131;42.694;23.350;2023-08-17T01:51:11;4.32;;;1.60;;
51082;SDS011;37131;42.694;23.350;2023-08-17T01:53:41;5.00;;;1.90;;
51082;SDS011;37131;42.694;23.350;2023-08-17T01:56:06;2.60;;;1.67;;
51082;SDS011;37131;42.694;23.350;2023-08-17T01:58:32;3.88;;;1.58;;
51082;SDS011;37131;42.694;23.350;2023-08-17T02:00:57;3.33;;;1.75;;
51082;SDS011;37131;42.694;23.350;2023-08-17T02:03:22;6.32;;;2.00;;
51082;SDS011;37131;42.694;23.350;2023-08-17T02:05:48;3.95;;;1.77;;
51082;SDS011;37131;42.694;23.350;2023-08-17T02:08:13;4.57;;;1.55;;
51082;SDS011;37131;42.694;23.350;2023-08-17T02:10:38;3.75;;;1.88;;
51082;SDS011;37131;42.694;23.350;2023-08-17T02:13:04;4.45;;;1.92;;
51082;SDS011;37131;42.694;23.350;2023-08-17T02:15:29;5.13;;;1.90;;
51082;SDS011;37131;42.694;23.350;2023-08-17T02:17:56;6.10;;;1.63;;
51082;SDS011;37131;42.694;23.350;2023-08-17T02:20:22;4.38;;;1.83;;
51082;SDS011;37131;42.694;23.350;2023-08-17T02:22:47;4.53;;;1.55;;
51082;SDS011;37131;42.694;23.350;2023-08-17T02:25:13;3.28;;;1.60;;
51082;SDS011;37131;42.694;23.350;2023-08-17T02:27:38;4.57;;;1.65;;
51082;SDS011;37131;42.694;23.350;2023-08-17T02:30:04;3.80;;;1.40;;
51082;SDS011;37131;42.694;23.350;2023-08-17T02:32:29;5.35;;;1.63;;
51082;SDS011;37131;42.694;23.350;2023-08-17T02:34:55;4.25;;;1.70;;
51082;SDS011;37131;42.694;23.350;2023-08-17T02:37:20;3.03;;;1.50;;
51082;SDS011;37131;42.694;23.350;2023-08-17T02:39:45;5.43;;;1.60;;
51082;SDS011;37131;42.694;23.350;2023-08-17T02:42:11;3.35;;;1.48;;
51082;SDS011;37131;42.694;23.350;2023-08-17T02:44:36;2.80;;;1.45;;
51082;SDS011;37131;42.694;23.350;2023-08-17T02:47:02;2.53;;;1.27;;
51082;SDS011;37131;42.694;23.350;2023-08-17T02:49:27;4.07;;;1.42;;
51082;SDS011;37131;42.694;23.350;2023-08-17T02:51:53;2.83;;;1.50;;
51082;SDS011;37131;42.694;23.350;2023-08-17T02:54:18;2.67;;;1.30;;
51082;SDS011;37131;42.694;23.350;2023-08-17T02:56:43;2.70;;;1.25;;
51082;SDS011;37131;42.694;23.350;2023-08-17T02:59:09;3.03;;;1.48;;
51082;SDS011;37131;42.694;23.350;2023-08-17T03:01:34;2.40;;;1.33;;
51082;SDS011;37131;42.694;23.350;2023-08-17T03:04:00;2.90;;;1.30;;
51082;SDS011;37131;42.694;23.350;2023-08-17T03:06:25;2.65;;;1.40;;
51082;SDS011;37131;42.694;23.350;2023-08-17T03:08:51;3.42;;;1.40;;
51082;SDS011;37131;42.694;23.350;2023-08-17T03:11:18;1.80;;;1.23;;
51082;SDS011;37131;42.694;23.350;2023-08-17T03:13:43;1.80;;;1.10;;
51082;SDS011;37131;42.694;23.350;2023-08-17T03:16:10;2.97;;;1.23;;
51082;SDS011;37131;42.694;23.350;2023-08-17T03:18:36;4.00;;;1.38;;
51082;SDS011;37131;42.694;23.350;2023-08-17T03:21:01;2.90;;;1.20;;
51082;SDS011;37131;42.694;23.350;2023-08-17T03:23:27;4.70;;;1.50;;
51082;SDS011;37131;42.694;23.350;2023-08-17T03:25:52;2.58;;;1.17;;
51082;SDS011;37131;42.694;23.350;2023-08-17T03:28:18;5.55;;;1.60;;
51082;SDS011;37131;42.694;23.350;2023-08-17T03:30:44;3.22;;;1.50;;
51082;SDS011;37131;42.694;23.350;2023-08-17T03:33:09;3.50;;;1.65;;
51082;SDS011;37131;42.694;23.350;2023-08-17T03:35:34;3.13;;;1.33;;
51082;SDS011;37131;42.694;23.350;2023-08-17T03:38:00;4.70;;;1.50;;
51082;SDS011;37131;42.694;23.350;2023-08-17T03:40:25;3.83;;;1.55;;
51082;SDS011;37131;42.694;23.350;2023-08-17T03:42:51;1.98;;;1.20;;
51082;SDS011;37131;42.694;23.350;2023-08-17T03:45:17;5.43;;;1.50;;
51082;SDS011;37131;42.694;23.350;2023-08-17T03:47:43;3.65;;;1.42;;
51082;SDS011;37131;42.694;23.350;2023-08-17T03:50:09;3.50;;;1.50;;
51082;SDS011;37131;42.694;23.350;2023-08-17T03:52:34;6.75;;;1.50;;
51082;SDS011;37131;42.694;23.350;2023-08-17T03:55:00;6.40;;;1.73;;
51082;SDS011;37131;42.694;23.350;2023-08-17T03:57:25;4.75;;;1.65;;
51082;SDS011;37131;42.694;23.350;2023-08-17T03:59:50;1.95;;;1.30;;
51082;SDS011;37131;42.694;23.350;2023-08-17T04:02:16;2.85;;;1.50;;
51082;SDS011;37131;42.694;23.350;2023-08-17T04:04:41;5.28;;;1.40;;
51082;SDS011;37131;42.694;23.350;2023-08-17T04:07:07;3.85;;;1.40;;
51082;SDS011;37131;42.694;23.350;2023-08-17T04:09:32;2.13;;;1.15;;
51082;SDS011;37131;42.694;23.350;2023-08-17T04:11:58;6.00;;;1.52;;
51082;SDS011;37131;42.694;23.350;2023-08-17T04:14:24;4.18;;;1.58;;
51082;SDS011;37131;42.694;23.350;2023-08-17T04:16:50;6.18;;;1.88;;
51082;SDS011;37131;42.694;23.350;2023-08-17T04:19:16;3.65;;;1.70;;
51082;SDS011;37131;42.694;23.350;2023-08-17T04:21:42;6.20;;;2.30;;
51082;SDS011;37131;42.694;23.350;2023-08-17T04:24:07;6.30;;;2.17;;
51082;SDS011;37131;42.694;23.350;2023-08-17T04:26:32;4.93;;;2.30;;
51082;SDS011;37131;42.694;23.350;2023-08-17T04:28:58;6.60;;;2.28;;
51082;SDS011;37131;42.694;23.350;2023-08-17T04:31:23;5.65;;;2.20;;
51082;SDS011;37131;42.694;23.350;2023-08-17T04:33:49;5.70;;;1.77;;
51082;SDS011;37131;42.694;23.350;2023-08-17T04:36:14;3.67;;;2.10;;
51082;SDS011;37131;42.694;23.350;2023-08-17T04:38:39;5.40;;;2.40;;
51082;SDS011;37131;42.694;23.350;2023-08-17T04:41:05;3.83;;;1.80;;
51082;SDS011;37131;42.694;23.350;2023-08-17T04:43:30;4.00;;;1.90;;
51082;SDS011;37131;42.694;23.350;2023-08-17T04:45:56;4.05;;;1.80;;
51082;SDS011;37131;42.694;23.350;2023-08-17T04:48:21;6.85;;;1.88;;
51082;SDS011;37131;42.694;23.350;2023-08-17T04:50:46;5.40;;;1.92;;
51082;SDS011;37131;42.694;23.350;2023-08-17T04:53:12;4.28;;;2.10;;
51082;SDS011;37131;42.694;23.350;2023-08-17T04:55:37;4.32;;;2.00;;
51082;SDS011;37131;42.694;23.350;2023-08-17T04:58:03;8.93;;;2.20;;
51082;SDS011;37131;42.694;23.350;2023-08-17T05:00:28;5.15;;;1.80;;
51082;SDS011;37131;42.694;23.350;2023-08-17T05:02:54;4.47;;;1.85;;
51082;SDS011;37131;42.694;23.350;2023-08-17T05:05:20;4.80;;;2.22;;
51082;SDS011;37131;42.694;23.350;2023-08-17T05:07:45;5.00;;;1.70;;
51082;SDS011;37131;42.694;23.350;2023-08-17T05:10:11;5.80;;;1.85;;
51082;SDS011;37131;42.694;23.350;2023-08-17T05:12:36;4.30;;;1.75;;
51082;SDS011;37131;42.694;23.350;2023-08-17T05:15:02;4.68;;;2.33;;
51082;SDS011;37131;42.694;23.350;2023-08-17T05:17:28;4.40;;;1.85;;
51082;SDS011;37131;42.694;23.350;2023-08-17T05:19:53;5.47;;;1.40;;
51082;SDS011;37131;42.694;23.350;2023-08-17T05:22:19;5.28;;;1.75;;
51082;SDS011;37131;42.694;23.350;2023-08-17T05:24:44;5.97;;;1.60;;
51082;SDS011;37131;42.694;23.350;2023-08-17T05:27:09;3.85;;;1.73;;
51082;SDS011;37131;42.694;23.350;2023-08-17T05:29:35;3.00;;;1.60;;
51082;SDS011;37131;42.694;23.350;2023-08-17T05:32:00;3.28;;;1.52;;
51082;SDS011;37131;42.694;23.350;2023-08-17T05:34:25;4.75;;;1.50;;
51082;SDS011;37131;42.694;23.350;2023-08-17T05:36:51;4.35;;;1.63;;
51082;SDS011;37131;42.694;23.350;2023-08-17T05:39:16;5.55;;;1.58;;
51082;SDS011;37131;42.694;23.350;2023-08-17T05:41:42;2.70;;;1.25;;
51082;SDS011;37131;42.694;23.350;2023-08-17T05:44:07;9.18;;;1.92;;
51082;SDS011;37131;42.694;23.350;2023-08-17T05:46:33;5.68;;;1.45;;
51082;SDS011;37131;42.694;23.350;2023-08-17T05:48:59;4.50;;;1.40;;
51082;SDS011;37131;42.694;23.350;2023-08-17T05:51:25;5.40;;;1.60;;
51082;SDS011;37131;42.694;23.350;2023-08-17T05:53:51;3.97;;;1.50;;
51082;SDS011;37131;42.694;23.350;2023-08-17T05:56:16;4.50;;;2.25;;
51082;SDS011;37131;42.694;23.350;2023-08-17T05:58:42;5.10;;;1.70;;
51082;SDS011;37131;42.694;23.350;2023-08-17T06:01:08;4.32;;;1.70;;
51082;SDS011;37131;42.694;23.350;2023-08-17T06:03:34;4.28;;;1.80;;
51082;SDS011;37131;42.694;23.350;2023-08-17T06:06:00;5.07;;;2.42;;
51082;SDS011;37131;42.694;23.350;2023-08-17T06:08:26;4.55;;;1.92;;
51082;SDS011;37131;42.694;23.350;2023-08-17T06:10:51;2.75;;;1.48;;
51082;SDS011;37131;42.694;23.350;2023-08-17T06:13:17;4.35;;;1.83;;
51082;SDS011;37131;42.694;23.350;2023-08-17T06:15:42;3.47;;;2.08;;
51082;SDS011;37131;42.694;23.350;2023-08-17T06:18:08;3.60;;;2.17;;
51082;SDS011;37131;42.694;23.350;2023-08-17T06:20:33;3.20;;;2.13;;
51082;SDS011;37131;42.694;23.350;2023-08-17T06:22:58;4.72;;;2.40;;
51082;SDS011;37131;42.694;23.350;2023-08-17T06:25:24;4.45;;;1.88;;
51082;SDS011;37131;42.694;23.350;2023-08-17T06:27:50;3.58;;;1.58;;
51082;SDS011;37131;42.694;23.350;2023-08-17T06:30:16;3.70;;;1.67;;
51082;SDS011;37131;42.694;23.350;2023-08-17T06:32:42;3.42;;;1.80;;
51082;SDS011;37131;42.694;23.350;2023-08-17T06:35:07;4.25;;;1.80;;
51082;SDS011;37131;42.694;23.350;2023-08-17T06:37:33;4.68;;;1.95;;
51082;SDS011;37131;42.694;23.350;2023-08-17T06:39:58;4.00;;;2.20;;
51082;SDS011;37131;42.694;23.350;2023-08-17T06:42:24;4.55;;;2.20;;
51082;SDS011;37131;42.694;23.350;2023-08-17T06:44:49;4.40;;;2.25;;
51082;SDS011;37131;42.694;23.350;2023-08-17T06:47:15;4.63;;;1.90;;
51082;SDS011;37131;42.694;23.350;2023-08-17T06:49:40;3.22;;;1.60;;
51082;SDS011;37131;42.694;23.350;2023-08-17T06:52:05;4.35;;;1.60;;
51082;SDS011;37131;42.694;23.350;2023-08-17T06:54:31;3.67;;;1.83;;
51082;SDS011;37131;42.694;23.350;2023-08-17T06:56:57;3.28;;;1.80;;
51082;SDS011;37131;42.694;23.350;2023-08-17T06:59:23;6.65;;;2.13;;
51082;SDS011;37131;42.694;23.350;2023-08-17T07:01:48;5.30;;;1.80;;
51082;SDS011;37131;42.694;23.350;2023-08-17T07:04:14;4.95;;;2.15;;
51082;SDS011;37131;42.694;23.350;2023-08-17T07:06:39;4.63;;;1.67;;
51082;SDS011;37131;42.694;23.350;2023-08-17T07:09:06;2.55;;;1.73;;
51082;SDS011;37131;42.694;23.350;2023-08-17T07:11:31;4.47;;;1.77;;
51082;SDS011;37131;42.694;23.350;2023-08-17T07:13:57;3.22;;;1.92;;
51082;SDS011;37131;42.694;23.350;2023-08-17T07:16:23;2.85;;;1.50;;
51082;SDS011;37131;42.694;23.350;2023-08-17T07:18:48;2.78;;;1.40;;
51082;SDS011;37131;42.694;23.350;2023-08-17T07:21:13;6.40;;;1.75;;
51082;SDS011;37131;42.694;23.350;2023-08-17T07:23:39;5.45;;;1.77;;
51082;SDS011;37131;42.694;23.350;2023-08-17T07:26:04;3.08;;;1.30;;
51082;SDS011;37131;42.694;23.350;2023-08-17T07:28:30;4.30;;;1.80;;
51082;SDS011;37131;42.694;23.350;2023-08-17T07:30:55;5.43;;;2.92;;
51082;SDS011;37131;42.694;23.350;2023-08-17T07:33:20;6.55;;;2.97;;
51082;SDS011;37131;42.694;23.350;2023-08-17T07:35:46;3.92;;;1.40;;
51082;SDS011;37131;42.694;23.350;2023-08-17T07:38:11;2.65;;;1.33;;
51082;SDS011;37131;42.694;23.350;2023-08-17T07:40:37;2.28;;;1.38;;
51082;SDS011;37131;42.694;23.350;2023-08-17T07:43:03;2.50;;;1.30;;
51082;SDS011;37131;42.694;23.350;2023-08-17T07:45:28;4.55;;;1.58;;
51082;SDS011;37131;42.694;23.350;2023-08-17T07:47:54;3.35;;;1.40;;
51082;SDS011;37131;42.694;23.350;2023-08-17T07:50:19;2.47;;;1.25;;
51082;SDS011;37131;42.694;23.350;2023-08-17T07:52:46;2.95;;;1.55;;
51082;SDS011;37131;42.694;23.350;2023-08-17T07:55:11;2.72;;;1.40;;
51082;SDS011;37131;42.694;23.350;2023-08-17T07:57:37;4.15;;;1.67;;
51082;SDS011;37131;42.694;23.350;2023-08-17T08:00:02;2.55;;;1.42;;
51082;SDS011;37131;42.694;23.350;2023-08-17T08:02:28;2.28;;;1.20;;
51082;SDS011;37131;42.694;23.350;2023-08-17T08:04:53;2.78;;;1.20;;
51082;SDS011;37131;42.694;23.350;2023-08-17T08:07:19;1.88;;;0.80;;
51082;SDS011;37131;42.694;23.350;2023-08-17T08:09:44;2.30;;;0.93;;
51082;SDS011;37131;42.694;23.350;2023-08-17T08:12:10;3.20;;;1.10;;
51082;SDS011;37131;42.694;23.350;2023-08-17T08:14:35;3.15;;;1.30;;
51082;SDS011;37131;42.694;23.350;2023-08-17T08:17:01;4.32;;;1.50;;
51082;SDS011;37131;42.694;23.350;2023-08-17T08:19:26;1.50;;;1.02;;
51082;SDS011;37131;42.694;23.350;2023-08-17T08:21:51;2.40;;;1.50;;
51082;SDS011;37131;42.694;23.350;2023-08-17T08:24:17;1.88;;;1.10;;
51082;SDS011;37131;42.694;23.350;2023-08-17T08:26:42;3.03;;;1.17;;
51082;SDS011;37131;42.694;23.350;2023-08-17T08:29:08;2.33;;;0.98;;
51082;SDS011;37131;42.694;23.350;2023-08-17T08:31:33;3.90;;;1.20;;
51082;SDS011;37131;42.694;23.350;2023-08-17T08:33:58;3.15;;;1.17;;
51082;SDS011;37131;42.694;23.350;2023-08-17T08:36:24;1.90;;;1.10;;
51082;SDS011;37131;42.694;23.350;2023-08-17T08:38:50;2.22;;;1.27;;
51082;SDS011;37131;42.694;23.350;2023-08-17T08:41:16;2.88;;;1.13;;
51082;SDS011;37131;42.694;23.350;2023-08-17T08:43:42;5.70;;;1.00;;
51082;SDS011;37131;42.694;23.350;2023-08-17T08:46:07;3.42;;;1.25;;
51082;SDS011;37131;42.694;23.350;2023-08-17T08:48:34;3.33;;;1.50;;
51082;SDS011;37131;42.694;23.350;2023-08-17T08:51:01;3.30;;;1.20;;
51082;SDS011;37131;42.694;23.350;2023-08-17T08:53:37;1.92;;;1.00;;
51082;SDS011;37131;42.694;23.350;2023-08-17T08:56:04;2.08;;;1.10;;
51082;SDS011;37131;42.694;23.350;2023-08-17T08:58:32;2.47;;;1.20;;
51082;SDS011;37131;42.694;23.350;2023-08-17T09:00:58;2.65;;;0.80;;
51082;SDS011;37131;42.694;23.350;2023-08-17T09:03:25;3.22;;;1.10;;
51082;SDS011;37131;42.694;23.350;2023-08-17T09:05:52;2.85;;;1.00;;
51082;SDS011;37131;42.694;23.350;2023-08-17T09:08:20;2.65;;;1.30;;
51082;SDS011;37131;42.694;23.350;2023-08-17T09:10:48;2.65;;;0.90;;
51082;SDS011;37131;42.694;23.350;2023-08-17T09:13:14;2.78;;;1.20;;
51082;SDS011;37131;42.694;23.350;2023-08-17T09:15:39;3.15;;;0.80;;
51082;SDS011;37131;42.694;23.350;2023-08-17T09:18:05;2.33;;;1.00;;
51082;SDS011;37131;42.694;23.350;2023-08-17T09:20:36;1.85;;;1.00;;
51082;SDS011;37131;42.694;23.350;2023-08-17T09:23:03;1.73;;;1.15;;
51082;SDS011;37131;42.694;23.350;2023-08-17T09:25:30;3.58;;;1.35;;
51082;SDS011;37131;42.694;23.350;2023-08-17T09:27:57;1.48;;;0.85;;
51082;SDS011;37131;42.694;23.350;2023-08-17T09:30:22;2.17;;;1.00;;
51082;SDS011;37131;42.694;23.350;2023-08-17T09:32:47;2.50;;;0.90;;
51082;SDS011;37131;42.694;23.350;2023-08-17T09:35:14;2.45;;;1.00;;
51082;SDS011;37131;42.694;23.350;2023-08-17T09:37:40;1.23;;;0.60;;
51082;SDS011;37131;42.694;23.350;2023-08-17T09:40:06;1.58;;;1.05;;
51082;SDS011;37131;42.694;23.350;2023-08-17T09:42:35;1.65;;;0.47;;
51082;SDS011;37131;42.694;23.350;2023-08-17T09:45:00;1.92;;;0.60;;
51082;SDS011;37131;42.694;23.350;2023-08-17T09:47:27;2.78;;;0.70;;
51082;SDS011;37131;42.694;23.350;2023-08-17T09:49:53;1.58;;;0.80;;
51082;SDS011;37131;42.694;23.350;2023-08-17T09:52:19;1.42;;;0.90;;
51082;SDS011;37131;42.694;23.350;2023-08-17T09:54:46;1.17;;;0.73;;
51082;SDS011;37131;42.694;23.350;2023-08-17T09:57:14;0.82;;;0.60;;
51082;SDS011;37131;42.694;23.350;2023-08-17T09:59:40;1.40;;;0.60;;
51082;SDS011;37131;42.694;23.350;2023-08-17T10:02:16;1.83;;;0.82;;
51082;SDS011;37131;42.694;23.350;2023-08-17T10:04:44;1.52;;;0.60;;
51082;SDS011;37131;42.694;23.350;2023-08-17T10:07:15;1.23;;;0.65;;
51082;SDS011;37131;42.694;23.350;2023-08-17T10:09:45;3.38;;;0.80;;
51082;SDS011;37131;42.694;23.350;2023-08-17T10:12:15;1.90;;;0.70;;
51082;SDS011;37131;42.694;23.350;2023-08-17T10:14:52;1.17;;;0.45;;
51082;SDS011;37131;42.694;23.350;2023-08-17T10:17:22;1.33;;;0.68;;
51082;SDS011;37131;42.694;23.350;2023-08-17T10:19:58;1.90;;;0.70;;
51082;SDS011;37131;42.694;23.350;2023-08-17T10:22:31;0.53;;;0.43;;
51082;SDS011;37131;42.694;23.350;2023-08-17T10:27:34;0.68;;;0.50;;
51082;SDS011;37131;42.694;23.350;2023-08-17T10:30:00;1.80;;;0.60;;
51082;SDS011;37131;42.694;23.350;2023-08-17T10:32:26;2.47;;;0.80;;
51082;SDS011;37131;42.694;23.350;2023-08-17T10:34:53;0.88;;;0.55;;
51082;SDS011;37131;42.694;23.350;2023-08-17T10:37:19;3.15;;;0.70;;
51082;SDS011;37131;42.694;23.350;2023-08-17T10:39:46;1.30;;;0.60;;
51082;SDS011;37131;42.694;23.350;2023-08-17T10:42:12;2.28;;;0.68;;
51082;SDS011;37131;42.694;23.350;2023-08-17T10:47:29;1.02;;;0.63;;
51082;SDS011;37131;42.694;23.350;2023-08-17T10:50:04;0.90;;;0.73;;
51082;SDS011;37131;42.694;23.350;2023-08-17T10:52:33;1.23;;;0.68;;
51082;SDS011;37131;42.694;23.350;2023-08-17T10:55:04;1.30;;;0.60;;
51082;SDS011;37131;42.694;23.350;2023-08-17T10:57:31;3.33;;;0.82;;
51082;SDS011;37131;42.694;23.350;2023-08-17T11:00:06;1.58;;;0.80;;
51082;SDS011;37131;42.694;23.350;2023-08-17T11:03:06;2.67;;;0.82;;
51082;SDS011;37131;42.694;23.350;2023-08-17T11:08:03;2.13;;;0.90;;
51082;SDS011;37131;42.694;23.350;2023-08-17T11:10:30;2.88;;;1.00;;
51082;SDS011;37131;42.694;23.350;2023-08-17T11:12:56;1.92;;;1.00;;
51082;SDS011;37131;42.694;23.350;2023-08-17T11:15:34;2.20;;;1.20;;
51082;SDS011;37131;42.694;23.350;2023-08-17T11:18:06;4.03;;;0.90;;
51082;SDS011;37131;42.694;23.350;2023-08-17T11:20:33;5.38;;;1.00;;
51082;SDS011;37131;42.694;23.350;2023-08-17T11:22:59;1.90;;;0.60;;
51082;SDS011;37131;42.694;23.350;2023-08-17T11:25:28;3.05;;;0.80;;
51082;SDS011;37131;42.694;23.350;2023-08-17T11:27:54;2.22;;;0.90;;
51082;SDS011;37131;42.694;23.350;2023-08-17T11:30:20;1.25;;;0.75;;
51082;SDS011;37131;42.694;23.350;2023-08-17T11:32:48;1.33;;;0.60;;
51082;SDS011;37131;42.694;23.350;2023-08-17T11:35:14;1.02;;;0.68;;
51082;SDS011;37131;42.694;23.350;2023-08-17T11:37:40;1.17;;;0.70;;
51082;SDS011;37131;42.694;23.350;2023-08-17T11:40:05;1.30;;;0.82;;
51082;SDS011;37131;42.694;23.350;2023-08-17T11:42:33;3.92;;;1.10;;
51082;SDS011;37131;42.694;23.350;2023-08-17T11:44:58;7.43;;;1.00;;
51082;SDS011;37131;42.694;23.350;2023-08-17T11:47:23;2.08;;;0.90;;
51082;SDS011;37131;42.694;23.350;2023-08-17T11:49:50;1.95;;;0.70;;
51082;SDS011;37131;42.694;23.350;2023-08-17T11:52:15;1.30;;;0.68;;
51082;SDS011;37131;42.694;23.350;2023-08-17T11:54:41;1.30;;;0.55;;
51082;SDS011;37131;42.694;23.350;2023-08-17T11:57:06;1.58;;;0.80;;
51082;SDS011;37131;42.694;23.350;2023-08-17T11:59:32;1.33;;;0.80;;
51082;SDS011;37131;42.694;23.350;2023-08-17T12:01:58;2.35;;;0.75;;
51082;SDS011;37131;42.694;23.350;2023-08-17T12:04:25;1.75;;;1.00;;
51082;SDS011;37131;42.694;23.350;2023-08-17T12:06:51;2.17;;;0.90;;
51082;SDS011;37131;42.694;23.350;2023-08-17T12:09:17;3.95;;;0.90;;
51082;SDS011;37131;42.694;23.350;2023-08-17T12:11:44;2.33;;;0.90;;
51082;SDS011;37131;42.694;23.350;2023-08-17T12:14:11;1.75;;;0.93;;
51082;SDS011;37131;42.694;23.350;2023-08-17T12:16:46;1.73;;;0.85;;
51082;SDS011;37131;42.694;23.350;2023-08-17T12:19:14;2.42;;;1.17;;
51082;SDS011;37131;42.694;23.350;2023-08-17T12:21:40;3.03;;;0.85;;
51082;SDS011;37131;42.694;23.350;2023-08-17T12:24:08;2.80;;;0.98;;
51082;SDS011;37131;42.694;23.350;2023-08-17T12:26:34;1.65;;;1.10;;
51082;SDS011;37131;42.694;23.350;2023-08-17T12:29:00;2.13;;;1.33;;
51082;SDS011;37131;42.694;23.350;2023-08-17T12:31:29;3.40;;;1.40;;
51082;SDS011;37131;42.694;23.350;2023-08-17T12:33:54;3.17;;;1.40;;
51082;SDS011;37131;42.694;23.350;2023-08-17T12:36:20;2.92;;;1.38;;
51082;SDS011;37131;42.694;23.350;2023-08-17T12:38:46;1.65;;;1.10;;
51082;SDS011;37131;42.694;23.350;2023-08-17T12:41:13;2.15;;;1.20;;
51082;SDS011;37131;42.694;23.350;2023-08-17T12:43:38;2.67;;;1.33;;
51082;SDS011;37131;42.694;23.350;2023-08-17T12:46:04;2.90;;;1.00;;
51082;SDS011;37131;42.694;23.350;2023-08-17T12:48:29;1.50;;;1.08;;
51082;SDS011;37131;42.694;23.350;2023-08-17T12:50:55;1.35;;;1.00;;
51082;SDS011;37131;42.694;23.350;2023-08-17T12:53:21;2.35;;;1.33;;
51082;SDS011;37131;42.694;23.350;2023-08-17T12:55:47;4.10;;;1.20;;
51082;SDS011;37131;42.694;23.350;2023-08-17T12:58:12;3.33;;;1.48;;
51082;SDS011;37131;42.694;23.350;2023-08-17T13:00:37;2.30;;;1.27;;
51082;SDS011;37131;42.694;23.350;2023-08-17T13:03:03;3.80;;;1.40;;
51082;SDS011;37131;42.694;23.350;2023-08-17T13:05:29;3.58;;;1.30;;
51082;SDS011;37131;42.694;23.350;2023-08-17T13:07:54;1.38;;;1.10;;
51082;SDS011;37131;42.694;23.350;2023-08-17T13:10:19;2.83;;;1.10;;
51082;SDS011;37131;42.694;23.350;2023-08-17T13:12:45;2.20;;;1.30;;
51082;SDS011;37131;42.694;23.350;2023-08-17T13:15:12;1.67;;;1.10;;
51082;SDS011;37131;42.694;23.350;2023-08-17T13:17:38;2.83;;;1.20;;
51082;SDS011;37131;42.694;23.350;2023-08-17T13:20:03;3.58;;;1.42;;
51082;SDS011;37131;42.694;23.350;2023-08-17T13:22:31;1.60;;;1.10;;
51082;SDS011;37131;42.694;23.350;2023-08-17T13:24:56;1.95;;;1.15;;
51082;SDS011;37131;42.694;23.350;2023-08-17T13:27:22;3.00;;;1.10;;
51082;SDS011;37131;42.694;23.350;2023-08-17T13:29:47;2.05;;;1.10;;
51082;SDS011;37131;42.694;23.350;2023-08-17T13:32:12;3.78;;;1.15;;
51082;SDS011;37131;42.694;23.350;2023-08-17T13:34:38;4.97;;;1.30;;
51082;SDS011;37131;42.694;23.350;2023-08-17T13:37:03;1.70;;;1.08;;
51082;SDS011;37131;42.694;23.350;2023-08-17T13:39:29;2.38;;;1.17;;
51082;SDS011;37131;42.694;23.350;2023-08-17T13:41:54;2.95;;;1.20;;
51082;SDS011;37131;42.694;23.350;2023-08-17T13:44:19;4.30;;;1.40;;
51082;SDS011;37131;42.694;23.350;2023-08-17T13:46:45;2.50;;;1.20;;
51082;SDS011;37131;42.694;23.350;2023-08-17T13:49:10;2.33;;;1.20;;
51082;SDS011;37131;42.694;23.350;2023-08-17T13:51:36;2.05;;;1.10;;
51082;SDS011;37131;42.694;23.350;2023-08-17T13:54:01;1.63;;;0.98;;
51082;SDS011;37131;42.694;23.350;2023-08-17T13:56:26;1.83;;;1.30;;
51082;SDS011;37131;42.694;23.350;2023-08-17T13:58:52;2.25;;;1.13;;
51082;SDS011;37131;42.694;23.350;2023-08-17T14:01:17;1.58;;;1.13;;
51082;SDS011;37131;42.694;23.350;2023-08-17T14:03:44;4.25;;;1.35;;
51082;SDS011;37131;42.694;23.350;2023-08-17T14:06:09;2.45;;;1.23;;
51082;SDS011;37131;42.694;23.350;2023-08-17T14:08:34;2.65;;;0.93;;
51082;SDS011;37131;42.694;23.350;2023-08-17T14:11:00;2.95;;;1.13;;
51082;SDS011;37131;42.694;23.350;2023-08-17T14:13:25;4.25;;;1.30;;
51082;SDS011;37131;42.694;23.350;2023-08-17T14:15:51;2.40;;;0.98;;
51082;SDS011;37131;42.694;23.350;2023-08-17T14:18:16;2.33;;;1.20;;
51082;SDS011;37131;42.694;23.350;2023-08-17T14:20:41;2.03;;;1.00;;
51082;SDS011;37131;42.694;23.350;2023-08-17T14:23:07;1.83;;;1.10;;
51082;SDS011;37131;42.694;23.350;2023-08-17T14:25:32;2.60;;;1.20;;
51082;SDS011;37131;42.694;23.350;2023-08-17T14:27:59;1.98;;;1.20;;
51082;SDS011;37131;42.694;23.350;2023-08-17T14:30:24;3.10;;;1.00;;
51082;SDS011;37131;42.694;23.350;2023-08-17T14:32:51;4.35;;;1.20;;
51082;SDS011;37131;42.694;23.350;2023-08-17T14:35:16;3.35;;;0.93;;